createdAt,value
2016-11-25T00:00:55.914Z,1012.86
2016-11-25T00:01:56.012Z,1012.83
2016-11-25T00:02:55.670Z,1012.83
2016-11-25T00:03:55.686Z,1012.84
2016-11-25T00:04:55.975Z,1012.83
2016-11-25T00:05:55.823Z,1012.82
2016-11-25T00:06:55.826Z,1012.87
2016-11-25T00:07:55.934Z,1012.81
2016-11-25T00:08:55.999Z,1012.76
2016-11-25T00:09:55.808Z,1012.69
2016-11-25T00:10:56.055Z,1012.69
2016-11-25T00:11:55.885Z,1012.71
2016-11-25T00:12:55.839Z,1012.71
2016-11-25T00:13:56.017Z,1012.71
2016-11-25T00:14:55.914Z,1012.71
2016-11-25T00:15:56.000Z,1012.71
2016-11-25T00:16:56.287Z,1012.69
2016-11-25T00:17:55.924Z,1012.72
2016-11-25T00:18:56.140Z,1012.69
2016-11-25T00:19:55.978Z,1012.73
2016-11-25T00:20:56.091Z,1012.7
2016-11-25T00:21:56.094Z,1012.72
2016-11-25T00:22:56.140Z,1012.69
2016-11-25T00:23:56.251Z,1012.74
2016-11-25T00:24:56.159Z,1012.71
2016-11-25T00:25:55.997Z,1012.66
2016-11-25T00:26:56.258Z,1012.69
2016-11-25T00:27:56.132Z,1012.59
2016-11-25T00:28:56.129Z,1012.53
2016-11-25T00:29:56.663Z,1012.48
2016-11-25T00:30:56.327Z,1012.47
2016-11-25T00:31:56.092Z,1012.41
2016-11-25T00:32:56.224Z,1012.38
2016-11-25T00:33:56.413Z,1012.36
2016-11-25T00:34:56.083Z,1012.44
2016-11-25T00:35:56.328Z,1012.46
2016-11-25T00:36:56.278Z,1012.44
2016-11-25T00:37:56.328Z,1012.43
2016-11-25T00:38:56.208Z,1012.42
2016-11-25T00:39:56.307Z,1012.46
2016-11-25T00:40:56.479Z,1012.49
2016-11-25T00:41:56.292Z,1012.45
2016-11-25T00:42:56.991Z,1012.44
2016-11-25T00:43:56.280Z,1012.48
2016-11-25T00:44:56.374Z,1012.49
2016-11-25T00:45:56.367Z,1012.49
2016-11-25T00:46:56.442Z,1012.49
2016-11-25T00:47:56.433Z,1012.5
2016-11-25T00:48:56.329Z,1012.46
2016-11-25T00:49:56.307Z,1012.43
2016-11-25T00:50:56.335Z,1012.4
2016-11-25T00:51:56.562Z,1012.39
2016-11-25T00:52:56.343Z,1012.33
2016-11-25T00:53:57.212Z,1012.29
2016-11-25T00:54:56.560Z,1012.29
2016-11-25T00:55:56.558Z,1012.28
2016-11-25T00:56:56.550Z,1012.28
2016-11-25T00:57:56.658Z,1012.25
2016-11-25T00:58:56.506Z,1012.25
2016-11-25T00:59:56.501Z,1012.26
2016-11-25T01:00:56.579Z,1012.19
2016-11-25T01:01:56.511Z,1012.23
2016-11-25T01:02:56.494Z,1012.22
2016-11-25T01:03:56.673Z,1012.28
2016-11-25T01:04:56.784Z,1012.38
2016-11-25T01:05:56.925Z,1012.36
2016-11-25T01:06:56.658Z,1012.39
2016-11-25T01:07:56.620Z,1012.39
2016-11-25T01:08:56.720Z,1012.37
2016-11-25T01:09:56.967Z,1012.33
2016-11-25T01:10:56.789Z,1012.29
2016-11-25T01:11:56.872Z,1012.28
2016-11-25T01:12:56.725Z,1012.35
2016-11-25T01:13:56.790Z,1012.37
2016-11-25T01:14:56.771Z,1012.44
2016-11-25T01:15:56.643Z,1012.47
2016-11-25T01:16:57.051Z,1012.54
2016-11-25T01:17:56.640Z,1012.58
2016-11-25T01:18:57.028Z,1012.57
2016-11-25T01:19:56.837Z,1012.49
2016-11-25T01:20:56.851Z,1012.47
2016-11-25T01:21:57.328Z,1012.45
2016-11-25T01:22:56.935Z,1012.41
2016-11-25T01:23:56.889Z,1012.47
2016-11-25T01:24:56.778Z,1012.49
2016-11-25T01:25:56.841Z,1012.56
2016-11-25T01:26:57.055Z,1012.57
2016-11-25T01:27:56.876Z,1012.62
2016-11-25T01:28:57.052Z,1012.61
2016-11-25T01:29:57.267Z,1012.57
2016-11-25T01:30:56.872Z,1012.61
2016-11-25T01:31:57.048Z,1012.63
2016-11-25T01:32:57.057Z,1012.64
2016-11-25T01:33:56.963Z,1012.66
2016-11-25T01:34:56.930Z,1012.59
2016-11-25T01:35:56.883Z,1012.61
2016-11-25T01:36:57.447Z,1012.55
2016-11-25T01:37:56.927Z,1012.53
2016-11-25T01:38:56.915Z,1012.58
2016-11-25T01:39:56.960Z,1012.56
2016-11-25T01:40:57.079Z,1012.61
2016-11-25T01:41:57.103Z,1012.63
2016-11-25T01:42:57.043Z,1012.65
2016-11-25T01:43:57.265Z,1012.67
2016-11-25T01:44:56.999Z,1012.75
2016-11-25T01:45:57.078Z,1012.75
2016-11-25T01:46:57.435Z,1012.76
2016-11-25T01:47:57.553Z,1012.76
2016-11-25T01:48:57.123Z,1012.74
2016-11-25T01:49:57.383Z,1012.81
2016-11-25T01:50:57.111Z,1012.85
2016-11-25T01:51:57.342Z,1012.88
2016-11-25T01:52:57.131Z,1012.87
2016-11-25T01:53:57.248Z,1012.9
2016-11-25T01:54:57.132Z,1012.88
2016-11-25T01:55:57.307Z,1012.85
2016-11-25T01:56:57.261Z,1012.82
2016-11-25T01:57:57.297Z,1012.76
2016-11-25T01:58:57.189Z,1012.64
2016-11-25T01:59:57.212Z,1012.54
2016-11-25T02:00:57.295Z,1012.42
2016-11-25T02:01:57.336Z,1012.43
2016-11-25T02:02:57.272Z,1012.45
2016-11-25T02:03:57.260Z,1012.47
2016-11-25T02:04:57.372Z,1012.48
2016-11-25T02:05:57.376Z,1012.5
2016-11-25T02:06:57.845Z,1012.5
2016-11-25T02:07:57.401Z,1012.5
2016-11-25T02:08:57.362Z,1012.43
2016-11-25T02:09:57.375Z,1012.36
2016-11-25T02:10:57.381Z,1012.22
2016-11-25T02:11:57.449Z,1012.08
2016-11-25T02:12:57.626Z,1012
2016-11-25T02:13:57.534Z,1012
2016-11-25T02:14:57.819Z,1011.96
2016-11-25T02:15:57.438Z,1012.02
2016-11-25T02:16:57.465Z,1012.01
2016-11-25T02:17:57.605Z,1012.05
2016-11-25T02:18:57.982Z,1012.1
2016-11-25T02:19:57.611Z,1012.12
2016-11-25T02:20:57.596Z,1012.15
2016-11-25T02:21:57.543Z,1012.18
2016-11-25T02:22:57.688Z,1012.17
2016-11-25T02:23:57.553Z,1012.15
2016-11-25T02:24:57.561Z,1012.19
2016-11-25T02:25:57.830Z,1012.2
2016-11-25T02:26:57.530Z,1012.1
2016-11-25T02:27:58.233Z,1012.1
2016-11-25T02:28:57.684Z,1012.13
2016-11-25T02:29:57.802Z,1012.17
2016-11-25T02:30:57.798Z,1012.2
2016-11-25T02:31:57.823Z,1012.18
2016-11-25T02:32:57.831Z,1012.19
2016-11-25T02:33:57.881Z,1012.17
2016-11-25T02:34:57.739Z,1012.2
2016-11-25T02:35:58.189Z,1012.16
2016-11-25T02:36:58.058Z,1012.21
2016-11-25T02:37:57.829Z,1012.33
2016-11-25T02:38:57.811Z,1012.37
2016-11-25T02:39:57.971Z,1012.37
2016-11-25T02:40:58.054Z,1012.39
2016-11-25T02:41:57.821Z,1012.35
2016-11-25T02:42:57.714Z,1012.33
2016-11-25T02:43:57.828Z,1012.36
2016-11-25T02:44:57.790Z,1012.36
2016-11-25T02:45:57.935Z,1012.33
2016-11-25T02:46:57.951Z,1012.23
2016-11-25T02:47:57.980Z,1012.24
2016-11-25T02:48:58.190Z,1012.25
2016-11-25T02:49:57.918Z,1012.24
2016-11-25T02:50:57.927Z,1012.28
2016-11-25T02:51:58.191Z,1012.28
2016-11-25T02:52:58.163Z,1012.27
2016-11-25T02:53:58.183Z,1012.25
2016-11-25T02:54:58.070Z,1012.22
2016-11-25T02:55:58.259Z,1012.2
2016-11-25T02:56:57.880Z,1012.2
2016-11-25T02:57:57.994Z,1012.12
2016-11-25T02:58:58.178Z,1012.09
2016-11-25T02:59:58.197Z,1012.08
2016-11-25T03:00:57.976Z,1012.08
2016-11-25T03:01:57.966Z,1012.16
2016-11-25T03:02:58.049Z,1012.25
2016-11-25T03:03:58.015Z,1012.23
2016-11-25T03:04:58.013Z,1012.23
2016-11-25T03:05:57.976Z,1012.28
2016-11-25T03:06:58.263Z,1012.26
2016-11-25T03:07:58.293Z,1012.25
2016-11-25T03:08:58.016Z,1012.27
2016-11-25T03:09:58.305Z,1012.26
2016-11-25T03:10:58.543Z,1012.24
2016-11-25T03:11:58.828Z,1012.24
2016-11-25T03:12:58.402Z,1012.26
2016-11-25T03:13:58.621Z,1012.3
2016-11-25T03:14:58.234Z,1012.34
2016-11-25T03:15:58.414Z,1012.31
2016-11-25T03:16:58.437Z,1012.33
2016-11-25T03:17:58.421Z,1012.34
2016-11-25T03:18:58.286Z,1012.34
2016-11-25T03:19:58.443Z,1012.39
2016-11-25T03:20:58.406Z,1012.4
2016-11-25T03:21:58.694Z,1012.39
2016-11-25T03:22:58.783Z,1012.37
2016-11-25T03:23:58.465Z,1012.34
2016-11-25T03:24:58.318Z,1012.32
2016-11-25T03:25:58.375Z,1012.33
2016-11-25T03:26:58.581Z,1012.33
2016-11-25T03:27:58.668Z,1012.36
2016-11-25T03:28:58.413Z,1012.38
2016-11-25T03:29:58.643Z,1012.43
2016-11-25T03:30:58.658Z,1012.41
2016-11-25T03:31:58.404Z,1012.42
2016-11-25T03:32:58.466Z,1012.46
2016-11-25T03:33:58.655Z,1012.44
2016-11-25T03:34:58.547Z,1012.45
2016-11-25T03:35:58.540Z,1012.42
2016-11-25T03:36:58.603Z,1012.45
2016-11-25T03:37:58.652Z,1012.52
2016-11-25T03:38:58.834Z,1012.58
2016-11-25T03:39:58.774Z,1012.64
2016-11-25T03:40:58.744Z,1012.68
2016-11-25T03:41:58.467Z,1012.71
2016-11-25T03:42:58.752Z,1012.67
2016-11-25T03:43:58.941Z,1012.7
2016-11-25T03:44:59.091Z,1012.69
2016-11-25T03:45:58.753Z,1012.59
2016-11-25T03:46:58.677Z,1012.53
2016-11-25T03:47:58.625Z,1012.47
2016-11-25T03:48:58.642Z,1012.45
2016-11-25T03:49:58.665Z,1012.45
2016-11-25T03:50:58.647Z,1012.42
2016-11-25T03:51:58.684Z,1012.41
2016-11-25T03:52:58.623Z,1012.39
2016-11-25T03:53:58.598Z,1012.38
2016-11-25T03:54:58.784Z,1012.35
2016-11-25T03:55:59.247Z,1012.33
2016-11-25T03:56:58.610Z,1012.3
2016-11-25T03:57:58.607Z,1012.31
2016-11-25T03:58:58.636Z,1012.26
2016-11-25T03:59:58.657Z,1012.21
2016-11-25T04:00:58.698Z,1012.14
2016-11-25T04:01:58.876Z,1012.14
2016-11-25T04:02:58.828Z,1012.18
2016-11-25T04:03:58.726Z,1012.18
2016-11-25T04:04:58.829Z,1012.24
2016-11-25T04:05:58.877Z,1012.32
2016-11-25T04:06:58.934Z,1012.41
2016-11-25T04:07:59.118Z,1012.47
2016-11-25T04:08:59.015Z,1012.55
2016-11-25T04:09:59.416Z,1012.58
2016-11-25T04:10:59.104Z,1012.52
2016-11-25T04:11:59.109Z,1012.46
2016-11-25T04:12:58.933Z,1012.45
2016-11-25T04:13:58.873Z,1012.38
2016-11-25T04:14:59.150Z,1012.37
2016-11-25T04:15:59.291Z,1012.38
2016-11-25T04:16:59.239Z,1012.34
2016-11-25T04:17:58.901Z,1012.29
2016-11-25T04:18:58.885Z,1012.27
2016-11-25T04:19:59.183Z,1012.3
2016-11-25T04:20:58.909Z,1012.34
2016-11-25T04:21:58.905Z,1012.34
2016-11-25T04:22:59.139Z,1012.3
2016-11-25T04:23:59.099Z,1012.33
2016-11-25T04:24:59.157Z,1012.33
2016-11-25T04:25:59.195Z,1012.27
2016-11-25T04:26:59.122Z,1012.24
2016-11-25T04:27:59.044Z,1012.18
2016-11-25T04:28:59.098Z,1012.19
2016-11-25T04:29:59.251Z,1012.16
2016-11-25T04:30:59.308Z,1012.12
2016-11-25T04:31:59.276Z,1012.14
2016-11-25T04:32:59.221Z,1012.11
2016-11-25T04:33:59.208Z,1012.14
2016-11-25T04:34:59.282Z,1012.09
2016-11-25T04:35:59.295Z,1012.11
2016-11-25T04:36:59.158Z,1012.15
2016-11-25T04:37:59.148Z,1012.18
2016-11-25T04:38:59.489Z,1012.17
2016-11-25T04:39:59.152Z,1012.19
2016-11-25T04:40:59.134Z,1012.22
2016-11-25T04:41:59.175Z,1012.24
2016-11-25T04:42:59.098Z,1012.3
2016-11-25T04:43:59.533Z,1012.31
2016-11-25T04:44:59.299Z,1012.3
2016-11-25T04:45:59.428Z,1012.35
2016-11-25T04:46:59.572Z,1012.31
2016-11-25T04:47:59.454Z,1012.3
2016-11-25T04:48:59.489Z,1012.35
2016-11-25T04:49:59.329Z,1012.32
2016-11-25T04:50:59.484Z,1012.29
2016-11-25T04:51:59.235Z,1012.31
2016-11-25T04:52:59.726Z,1012.33
2016-11-25T04:53:59.540Z,1012.31
2016-11-25T04:54:59.400Z,1012.32
2016-11-25T04:55:59.530Z,1012.25
2016-11-25T04:56:59.608Z,1012.32
2016-11-25T04:57:59.525Z,1012.3
2016-11-25T04:58:59.521Z,1012.25
2016-11-25T04:59:59.436Z,1012.22
2016-11-25T05:00:59.632Z,1012.24
2016-11-25T05:01:59.933Z,1012.26
2016-11-25T05:02:59.500Z,1012.25
2016-11-25T05:03:59.702Z,1012.25
2016-11-25T05:04:59.632Z,1012.27
2016-11-25T05:05:59.718Z,1012.21
2016-11-25T05:06:59.459Z,1012.23
2016-11-25T05:07:59.448Z,1012.23
2016-11-25T05:08:59.382Z,1012.17
2016-11-25T05:09:59.403Z,1012.21
2016-11-25T05:10:59.977Z,1012.19
2016-11-25T05:12:00.333Z,1012.23
2016-11-25T05:12:59.485Z,1012.21
2016-11-25T05:13:59.804Z,1012.2
2016-11-25T05:14:59.891Z,1012.14
2016-11-25T05:15:59.753Z,1012.15
2016-11-25T05:16:59.987Z,1012.16
2016-11-25T05:17:59.673Z,1012.17
2016-11-25T05:18:59.915Z,1012.16
2016-11-25T05:19:59.705Z,1012.19
2016-11-25T05:20:59.866Z,1012.14
2016-11-25T05:21:59.670Z,1012.13
2016-11-25T05:23:00.047Z,1012.15
2016-11-25T05:23:59.919Z,1012.18
2016-11-25T05:25:00.089Z,1012.16
2016-11-25T05:25:59.993Z,1012.19
2016-11-25T05:27:00.018Z,1012.14
2016-11-25T05:27:59.667Z,1012.19
2016-11-25T05:29:00.014Z,1012.14
2016-11-25T05:30:00.278Z,1012.16
2016-11-25T05:31:00.335Z,1012.13
2016-11-25T05:32:00.250Z,1012.16
2016-11-25T05:32:59.821Z,1012.17
2016-11-25T05:34:00.789Z,1012.22
2016-11-25T05:34:59.989Z,1012.24
2016-11-25T05:35:59.690Z,1012.2
2016-11-25T05:36:59.704Z,1012.18
2016-11-25T05:37:59.913Z,1012.17
2016-11-25T05:38:59.915Z,1012.11
2016-11-25T05:40:00.132Z,1012.14
2016-11-25T05:41:00.074Z,1012.15
2016-11-25T05:42:00.086Z,1012.11
2016-11-25T05:43:00.417Z,1012.09
2016-11-25T05:44:00.392Z,1012.05
2016-11-25T05:45:00.232Z,1012.1
2016-11-25T05:46:00.146Z,1012.08
2016-11-25T05:47:00.093Z,1012.06
2016-11-25T05:48:00.044Z,1012.05
2016-11-25T05:49:00.982Z,1012.06
2016-11-25T05:50:00.522Z,1012.08
2016-11-25T05:51:00.389Z,1012.1
2016-11-25T05:51:59.953Z,1012.1
2016-11-25T05:53:00.264Z,1012.11
2016-11-25T05:54:00.321Z,1012.13
2016-11-25T05:55:00.310Z,1012.14
2016-11-25T05:56:00.135Z,1012.13
2016-11-25T05:57:00.245Z,1012.11
2016-11-25T05:58:00.372Z,1012.09
2016-11-25T05:59:00.264Z,1012.08
2016-11-25T06:00:00.317Z,1012.11
2016-11-25T06:01:00.254Z,1012.11
2016-11-25T06:02:00.176Z,1012.13
2016-11-25T06:03:00.419Z,1012.16
2016-11-25T06:04:00.217Z,1012.16
2016-11-25T06:05:00.583Z,1012.21
2016-11-25T06:06:00.268Z,1012.25
2016-11-25T06:07:00.588Z,1012.18
2016-11-25T06:08:00.564Z,1012.19
2016-11-25T06:09:00.326Z,1012.17
2016-11-25T06:10:00.262Z,1012.19
2016-11-25T06:11:00.237Z,1012.21
2016-11-25T06:12:00.452Z,1012.22
2016-11-25T06:13:00.258Z,1012.23
2016-11-25T06:14:00.614Z,1012.26
2016-11-25T06:15:00.895Z,1012.23
2016-11-25T06:16:00.694Z,1012.25
2016-11-25T06:17:00.519Z,1012.23
2016-11-25T06:18:00.740Z,1012.21
2016-11-25T06:19:00.675Z,1012.22
2016-11-25T06:20:00.976Z,1012.26
2016-11-25T06:21:01.188Z,1012.2
2016-11-25T06:22:01.748Z,1012.23
2016-11-25T06:25:01.789Z,1012.2
2016-11-25T06:26:00.940Z,1012.21
2016-11-25T06:27:00.791Z,1012.21
2016-11-25T06:28:00.619Z,1012.22
2016-11-25T06:29:01.077Z,1012.22
2016-11-25T06:30:00.752Z,1012.25
2016-11-25T06:31:00.824Z,1012.26
2016-11-25T06:32:00.554Z,1012.28
2016-11-25T06:33:00.640Z,1012.32
2016-11-25T06:34:00.597Z,1012.31
2016-11-25T06:35:00.990Z,1012.34
2016-11-25T06:36:00.851Z,1012.3
2016-11-25T06:37:00.412Z,1012.33
2016-11-25T06:38:00.695Z,1012.32
2016-11-25T06:39:00.651Z,1012.34
2016-11-25T06:40:00.574Z,1012.34
2016-11-25T06:41:00.638Z,1012.34
2016-11-25T06:42:00.587Z,1012.32
2016-11-25T06:43:00.624Z,1012.39
2016-11-25T06:44:00.809Z,1012.4
2016-11-25T06:45:00.640Z,1012.41
2016-11-25T06:46:00.610Z,1012.43
2016-11-25T06:47:00.748Z,1012.43
2016-11-25T06:48:00.749Z,1012.46
2016-11-25T06:49:00.716Z,1012.47
2016-11-25T06:50:00.853Z,1012.49
2016-11-25T06:51:00.599Z,1012.48
2016-11-25T06:52:00.693Z,1012.48
2016-11-25T06:53:00.785Z,1012.46
2016-11-25T06:54:00.711Z,1012.5
2016-11-25T06:55:00.945Z,1012.46
2016-11-25T06:56:00.938Z,1012.48
2016-11-25T06:57:00.863Z,1012.5
2016-11-25T06:58:00.760Z,1012.48
2016-11-25T06:59:00.823Z,1012.53
2016-11-25T07:00:01.236Z,1012.49
2016-11-25T07:01:00.865Z,1012.51
2016-11-25T07:02:01.413Z,1012.45
2016-11-25T07:03:00.807Z,1012.46
2016-11-25T07:04:00.706Z,1012.5
2016-11-25T07:05:00.710Z,1012.5
2016-11-25T07:06:00.735Z,1012.52
2016-11-25T07:07:00.764Z,1012.52
2016-11-25T07:08:00.747Z,1012.52
2016-11-25T07:09:00.758Z,1012.58
2016-11-25T07:10:00.789Z,1012.59
2016-11-25T07:11:00.779Z,1012.54
2016-11-25T07:12:00.799Z,1012.52
2016-11-25T07:13:00.866Z,1012.53
2016-11-25T07:14:00.817Z,1012.56
2016-11-25T07:15:00.838Z,1012.55
2016-11-25T07:16:00.844Z,1012.53
2016-11-25T07:17:00.863Z,1012.54
2016-11-25T07:18:00.864Z,1012.57
2016-11-25T07:19:00.887Z,1012.63
2016-11-25T07:20:00.922Z,1012.54
2016-11-25T07:21:00.898Z,1012.57
2016-11-25T07:22:01.138Z,1012.6
2016-11-25T07:23:01.174Z,1012.58
2016-11-25T07:24:01.733Z,1012.56
2016-11-25T07:25:01.091Z,1012.56
2016-11-25T07:26:01.182Z,1012.56
2016-11-25T07:27:01.052Z,1012.52
2016-11-25T07:28:00.977Z,1012.53
2016-11-25T07:29:00.988Z,1012.49
2016-11-25T07:30:01.002Z,1012.46
2016-11-25T07:31:01.014Z,1012.53
2016-11-25T07:32:01.047Z,1012.52
2016-11-25T07:33:01.029Z,1012.58
2016-11-25T07:34:01.044Z,1012.57
2016-11-25T07:35:01.052Z,1012.61
2016-11-25T07:36:01.064Z,1012.58
2016-11-25T07:37:01.090Z,1012.56
2016-11-25T07:38:01.097Z,1012.57
2016-11-25T07:39:01.111Z,1012.56
2016-11-25T07:40:01.123Z,1012.54
2016-11-25T07:41:01.202Z,1012.58
2016-11-25T07:42:01.667Z,1012.59
2016-11-25T07:43:01.502Z,1012.62
2016-11-25T07:44:01.362Z,1012.59
2016-11-25T07:45:01.319Z,1012.64
2016-11-25T07:46:01.360Z,1012.64
2016-11-25T07:47:01.690Z,1012.66
2016-11-25T07:48:01.637Z,1012.71
2016-11-25T07:49:01.354Z,1012.71
2016-11-25T07:50:01.519Z,1012.73
2016-11-25T07:51:01.399Z,1012.73
2016-11-25T07:52:01.322Z,1012.68
2016-11-25T07:53:01.494Z,1012.7
2016-11-25T07:54:01.703Z,1012.68
2016-11-25T07:55:01.529Z,1012.65
2016-11-25T07:56:01.693Z,1012.61
2016-11-25T07:57:01.571Z,1012.58
2016-11-25T07:58:01.643Z,1012.63
2016-11-25T07:59:01.660Z,1012.61
2016-11-25T08:00:01.440Z,1012.57
2016-11-25T08:01:01.650Z,1012.58
2016-11-25T08:02:01.914Z,1012.6
2016-11-25T08:03:01.735Z,1012.71
2016-11-25T08:04:01.554Z,1012.73
2016-11-25T08:05:01.878Z,1012.73
2016-11-25T08:06:01.646Z,1012.75
2016-11-25T08:07:01.658Z,1012.7
2016-11-25T08:08:01.587Z,1012.68
2016-11-25T08:09:01.743Z,1012.68
2016-11-25T08:10:01.704Z,1012.72
2016-11-25T08:11:01.886Z,1012.69
2016-11-25T08:12:01.669Z,1012.73
2016-11-25T08:13:01.691Z,1012.69
2016-11-25T08:14:01.730Z,1012.64
2016-11-25T08:15:01.781Z,1012.69
2016-11-25T08:16:01.675Z,1012.66
2016-11-25T08:17:01.961Z,1012.71
2016-11-25T08:18:02.068Z,1012.67
2016-11-25T08:19:01.846Z,1012.68
2016-11-25T08:20:01.741Z,1012.66
2016-11-25T08:21:02.138Z,1012.61
2016-11-25T08:22:01.681Z,1012.62
2016-11-25T08:23:01.776Z,1012.64
2016-11-25T08:24:01.789Z,1012.66
2016-11-25T08:25:01.777Z,1012.61
2016-11-25T08:26:01.890Z,1012.63
2016-11-25T08:27:02.227Z,1012.65
2016-11-25T08:28:01.732Z,1012.64
2016-11-25T08:29:01.940Z,1012.63
2016-11-25T08:30:01.951Z,1012.66
2016-11-25T08:31:01.880Z,1012.65
2016-11-25T08:32:02.182Z,1012.65
2016-11-25T08:33:01.885Z,1012.7
2016-11-25T08:34:02.126Z,1012.67
2016-11-25T08:35:01.984Z,1012.67
2016-11-25T08:36:02.011Z,1012.67
2016-11-25T08:37:01.900Z,1012.69
2016-11-25T08:38:02.136Z,1012.69
2016-11-25T08:39:02.415Z,1012.66
2016-11-25T08:40:02.167Z,1012.63
2016-11-25T08:41:02.218Z,1012.66
2016-11-25T08:42:02.451Z,1012.65
2016-11-25T08:43:02.030Z,1012.64
2016-11-25T08:44:02.144Z,1012.55
2016-11-25T08:45:02.226Z,1012.59
2016-11-25T08:46:02.127Z,1012.64
2016-11-25T08:47:02.297Z,1012.59
2016-11-25T08:48:02.346Z,1012.61
2016-11-25T08:49:02.311Z,1012.66
2016-11-25T08:50:02.360Z,1012.65
2016-11-25T08:51:02.120Z,1012.63
2016-11-25T08:52:02.689Z,1012.7
2016-11-25T08:53:02.251Z,1012.72
2016-11-25T08:54:02.451Z,1012.79
2016-11-25T08:55:02.408Z,1012.76
2016-11-25T08:56:02.295Z,1012.75
2016-11-25T08:57:02.393Z,1012.78
2016-11-25T08:58:02.311Z,1012.8
2016-11-25T08:59:02.155Z,1012.79
2016-11-25T09:00:02.441Z,1012.77
2016-11-25T09:01:02.350Z,1012.75
2016-11-25T09:02:02.325Z,1012.75
2016-11-25T09:03:02.263Z,1012.73
2016-11-25T09:04:02.363Z,1012.75
2016-11-25T09:05:02.565Z,1012.73
2016-11-25T09:06:02.268Z,1012.74
2016-11-25T09:07:02.472Z,1012.7
2016-11-25T09:08:02.497Z,1012.74
2016-11-25T09:09:02.269Z,1012.69
2016-11-25T09:10:03.288Z,1012.66
2016-11-25T09:11:02.311Z,1012.64
2016-11-25T09:12:02.412Z,1012.68
2016-11-25T09:13:02.473Z,1012.68
2016-11-25T09:14:02.326Z,1012.72
2016-11-25T09:15:02.565Z,1012.73
2016-11-25T09:16:02.829Z,1012.74
2016-11-25T09:17:02.432Z,1012.77
2016-11-25T09:18:02.350Z,1012.75
2016-11-25T09:19:02.415Z,1012.75
2016-11-25T09:20:02.668Z,1012.79
2016-11-25T09:21:02.779Z,1012.81
2016-11-25T09:22:02.809Z,1012.82
2016-11-25T09:23:02.546Z,1012.81
2016-11-25T09:24:02.892Z,1012.83
2016-11-25T09:25:02.614Z,1012.86
2016-11-25T09:26:02.698Z,1012.88
2016-11-25T09:27:02.608Z,1012.89
2016-11-25T09:28:03.004Z,1012.92
2016-11-25T09:29:03.155Z,1012.86
2016-11-25T09:30:02.925Z,1012.86
2016-11-25T09:31:02.803Z,1012.89
2016-11-25T09:32:02.649Z,1012.86
2016-11-25T09:33:02.660Z,1012.9
2016-11-25T09:34:02.610Z,1012.93
2016-11-25T09:35:02.785Z,1012.97
2016-11-25T09:36:03.138Z,1012.91
2016-11-25T09:37:02.936Z,1012.94
2016-11-25T09:38:03.016Z,1012.95
2016-11-25T09:39:03.247Z,1012.94
2016-11-25T09:40:03.047Z,1012.91
2016-11-25T09:41:03.004Z,1012.93
2016-11-25T09:42:02.823Z,1012.96
2016-11-25T09:43:02.893Z,1012.97
2016-11-25T09:44:02.927Z,1012.92
2016-11-25T09:45:03.054Z,1012.95
2016-11-25T09:46:03.004Z,1012.9
2016-11-25T09:47:03.652Z,1012.89
2016-11-25T09:48:03.267Z,1012.81
2016-11-25T09:49:03.180Z,1012.82
2016-11-25T09:50:03.160Z,1012.81
2016-11-25T09:51:03.025Z,1012.8
2016-11-25T09:52:03.173Z,1012.84
2016-11-25T09:53:03.005Z,1012.87
2016-11-25T09:54:03.359Z,1012.9
2016-11-25T09:55:03.389Z,1012.87
2016-11-25T09:56:03.137Z,1012.82
2016-11-25T09:57:03.144Z,1012.8
2016-11-25T09:58:03.540Z,1012.8
2016-11-25T09:59:03.233Z,1012.84
2016-11-25T10:00:03.138Z,1012.89
2016-11-25T10:01:03.287Z,1012.91
2016-11-25T10:02:03.260Z,1012.9
2016-11-25T10:03:03.729Z,1012.83
2016-11-25T10:04:03.530Z,1012.89
2016-11-25T10:05:03.479Z,1012.85
2016-11-25T10:06:03.270Z,1012.8
2016-11-25T10:07:03.442Z,1012.8
2016-11-25T10:08:04.002Z,1012.77
2016-11-25T10:09:03.361Z,1012.76
2016-11-25T10:10:03.321Z,1012.79
2016-11-25T10:11:03.786Z,1012.78
2016-11-25T10:12:03.709Z,1012.8
2016-11-25T10:13:03.638Z,1012.78
2016-11-25T10:14:03.337Z,1012.81
2016-11-25T10:15:03.748Z,1012.78
2016-11-25T10:16:03.407Z,1012.75
2016-11-25T10:17:03.601Z,1012.72
2016-11-25T10:18:03.723Z,1012.69
2016-11-25T10:19:03.557Z,1012.69
2016-11-25T10:20:03.626Z,1012.7
2016-11-25T10:21:04.085Z,1012.73
2016-11-25T10:22:03.708Z,1012.73
2016-11-25T10:23:03.710Z,1012.69
2016-11-25T10:24:04.073Z,1012.71
2016-11-25T10:25:03.790Z,1012.69
2016-11-25T10:26:03.867Z,1012.72
2016-11-25T10:27:04.359Z,1012.7
2016-11-25T10:28:04.143Z,1012.71
2016-11-25T10:29:04.032Z,1012.69
2016-11-25T10:30:03.993Z,1012.68
2016-11-25T10:31:03.930Z,1012.64
2016-11-25T10:32:03.997Z,1012.61
2016-11-25T10:33:04.046Z,1012.61
2016-11-25T10:34:04.099Z,1012.58
2016-11-25T10:35:04.157Z,1012.58
2016-11-25T10:36:03.991Z,1012.61
2016-11-25T10:37:04.177Z,1012.55
2016-11-25T10:38:04.150Z,1012.54
2016-11-25T10:39:04.010Z,1012.52
2016-11-25T10:40:04.149Z,1012.52
2016-11-25T10:41:04.137Z,1012.57
2016-11-25T10:42:03.964Z,1012.54
2016-11-25T10:43:03.946Z,1012.52
2016-11-25T10:44:04.027Z,1012.5
2016-11-25T10:45:03.953Z,1012.48
2016-11-25T10:46:04.068Z,1012.49
2016-11-25T10:47:04.166Z,1012.49
2016-11-25T10:48:03.961Z,1012.47
2016-11-25T10:49:04.208Z,1012.47
2016-11-25T10:50:04.118Z,1012.48
2016-11-25T10:51:04.233Z,1012.48
2016-11-25T10:52:04.176Z,1012.46
2016-11-25T10:53:04.289Z,1012.43
2016-11-25T10:54:04.336Z,1012.41
2016-11-25T10:55:04.310Z,1012.4
2016-11-25T10:56:04.441Z,1012.41
2016-11-25T10:57:04.167Z,1012.41
2016-11-25T10:58:04.263Z,1012.41
2016-11-25T10:59:04.140Z,1012.4
2016-11-25T11:00:04.604Z,1012.41
2016-11-25T11:01:04.327Z,1012.4
2016-11-25T11:02:05.029Z,1012.4
2016-11-25T11:03:04.735Z,1012.33
2016-11-25T11:04:04.426Z,1012.34
2016-11-25T11:05:04.250Z,1012.34
2016-11-25T11:06:04.211Z,1012.33
2016-11-25T11:07:04.458Z,1012.31
2016-11-25T11:08:04.553Z,1012.25
2016-11-25T11:09:04.543Z,1012.28
2016-11-25T11:10:04.389Z,1012.3
2016-11-25T11:11:04.536Z,1012.28
2016-11-25T11:12:04.500Z,1012.27
2016-11-25T11:13:04.451Z,1012.29
2016-11-25T11:14:04.614Z,1012.26
2016-11-25T11:15:04.565Z,1012.23
2016-11-25T11:16:04.519Z,1012.25
2016-11-25T11:17:04.636Z,1012.18
2016-11-25T11:18:04.543Z,1012.18
2016-11-25T11:19:04.726Z,1012.21
2016-11-25T11:20:05.060Z,1012.22
2016-11-25T11:21:04.846Z,1012.21
2016-11-25T11:22:04.695Z,1012.18
2016-11-25T11:23:04.559Z,1012.23
2016-11-25T11:24:04.751Z,1012.28
2016-11-25T11:25:04.567Z,1012.27
2016-11-25T11:26:04.664Z,1012.27
2016-11-25T11:27:04.556Z,1012.26
2016-11-25T11:28:04.884Z,1012.26
2016-11-25T11:29:04.816Z,1012.23
2016-11-25T11:30:04.939Z,1012.17
2016-11-25T11:31:04.926Z,1012.22
2016-11-25T11:32:04.966Z,1012.21
2016-11-25T11:33:04.755Z,1012.17
2016-11-25T11:34:04.969Z,1012.19
2016-11-25T11:35:04.860Z,1012.19
2016-11-25T11:36:04.925Z,1012.21
2016-11-25T11:37:04.982Z,1012.17
2016-11-25T11:38:04.993Z,1012.19
2016-11-25T11:39:04.867Z,1012.2
2016-11-25T11:40:05.388Z,1012.23
2016-11-25T11:41:05.076Z,1012.19
2016-11-25T11:42:04.981Z,1012.17
2016-11-25T11:43:05.084Z,1012.17
2016-11-25T11:44:05.019Z,1012.17
2016-11-25T11:45:05.448Z,1012.17
2016-11-25T11:46:05.780Z,1012.23
2016-11-25T11:47:05.169Z,1012.08
2016-11-25T11:48:05.220Z,1012.13
2016-11-25T11:49:05.183Z,1012.07
2016-11-25T11:50:05.279Z,1012.05
2016-11-25T11:51:05.565Z,1012.05
2016-11-25T11:52:05.342Z,1012.06
2016-11-25T11:53:05.297Z,1012.04
2016-11-25T11:54:05.291Z,1012.01
2016-11-25T11:55:05.237Z,1012.04
2016-11-25T11:56:05.321Z,1012.04
2016-11-25T11:57:05.318Z,1012.01
2016-11-25T11:58:05.318Z,1012.01
2016-11-25T11:59:05.349Z,1011.96
2016-11-25T12:00:05.407Z,1012.01
2016-11-25T12:01:05.290Z,1011.99
2016-11-25T12:02:05.651Z,1011.92
2016-11-25T12:03:05.586Z,1011.92
2016-11-25T12:04:05.633Z,1011.9
2016-11-25T12:05:05.591Z,1011.87
2016-11-25T12:06:05.443Z,1011.81
2016-11-25T12:07:05.905Z,1011.84
2016-11-25T12:08:05.629Z,1011.82
2016-11-25T12:09:05.612Z,1011.79
2016-11-25T12:10:05.813Z,1011.79